createdAt,value
2022-08-04T00:01:10.006Z,16.4
2022-08-04T00:06:17.884Z,16.34
2022-08-04T00:11:25.720Z,16.19
2022-08-04T00:16:33.253Z,16.15
2022-08-04T00:21:41.312Z,16.28
2022-08-04T00:26:48.538Z,16.28
2022-08-04T00:31:56.373Z,16.2
2022-08-04T00:37:04.283Z,16.09
2022-08-04T00:42:12.007Z,16.03
2022-08-04T00:47:19.768Z,16.06
2022-08-04T00:52:26.777Z,16.06
2022-08-04T00:57:34.608Z,15.98
2022-08-04T01:02:42.772Z,15.97
2022-08-04T01:07:50.138Z,15.96
2022-08-04T01:12:57.639Z,15.82
2022-08-04T01:18:04.369Z,15.78
2022-08-04T01:23:12.472Z,15.65
2022-08-04T01:28:19.374Z,15.56
2022-08-04T01:33:26.623Z,15.61
2022-08-04T01:38:33.172Z,15.57
2022-08-04T01:43:41.065Z,15.54
2022-08-04T01:48:48.221Z,15.46
2022-08-04T01:53:55.999Z,15.36
2022-08-04T01:59:03.894Z,15.38
2022-08-04T02:04:12.882Z,15.43
2022-08-04T02:09:19.605Z,15.4
2022-08-04T02:14:27.484Z,15.32
2022-08-04T02:19:36.163Z,15.18
2022-08-04T02:24:43.736Z,15.08
2022-08-04T02:29:50.887Z,15.1
2022-08-04T02:34:58.781Z,15.12
2022-08-04T02:40:05.991Z,15.02
2022-08-04T02:45:13.795Z,14.9
2022-08-04T02:50:22.090Z,14.9
2022-08-04T02:55:30.247Z,15.05
2022-08-04T03:00:39.256Z,15.1
2022-08-04T03:05:47.034Z,15.02
2022-08-04T03:10:54.806Z,14.88
2022-08-04T03:16:01.502Z,14.8
2022-08-04T03:21:14.482Z,14.78
2022-08-04T03:26:22.534Z,14.82
2022-08-04T03:31:30.636Z,14.8
2022-08-04T03:36:37.526Z,14.74
2022-08-04T03:41:44.805Z,14.66
2022-08-04T03:46:52.252Z,14.53
2022-08-04T03:51:59.755Z,14.52
2022-08-04T03:57:07.858Z,14.56
2022-08-04T04:02:16.416Z,14.66
2022-08-04T04:07:23.872Z,15.16
2022-08-04T04:12:30.308Z,15.98
2022-08-04T04:17:38.133Z,16.8
2022-08-04T04:22:45.972Z,17.66
2022-08-04T04:27:54.963Z,18.34
2022-08-04T04:33:01.680Z,19.14
2022-08-04T04:38:09.519Z,19.8
2022-08-04T04:43:17.607Z,20.17
2022-08-04T04:48:25.177Z,20.56
2022-08-04T04:53:34.162Z,21.06
2022-08-04T04:58:40.854Z,21.52
2022-08-04T05:03:48.057Z,22.2
2022-08-04T05:08:56.243Z,22.82
2022-08-04T05:14:03.110Z,23.4
2022-08-04T05:19:10.973Z,23.76
2022-08-04T05:24:18.271Z,24.49
2022-08-04T05:29:24.696Z,24.73
2022-08-04T05:34:31.883Z,24.92
2022-08-04T05:39:39.334Z,25.22
2022-08-04T05:44:47.114Z,25.44
2022-08-04T05:49:53.494Z,25.54
2022-08-04T05:55:02.648Z,25.78
2022-08-04T06:00:09.846Z,25.82
2022-08-04T06:05:17.048Z,25.88
2022-08-04T06:10:26.015Z,25.86
2022-08-04T06:15:33.780Z,26.1
2022-08-04T06:20:42.965Z,26.28
2022-08-04T06:25:49.656Z,26.66
2022-08-04T06:30:57.149Z,27.24
2022-08-04T06:36:04.359Z,27.52
2022-08-04T06:41:11.846Z,27.58
2022-08-04T06:46:20.384Z,27.82
2022-08-04T06:51:27.415Z,28.04
2022-08-04T06:56:34.778Z,28.64
2022-08-04T07:01:43.400Z,28.9
2022-08-04T07:06:51.741Z,29.47
2022-08-04T07:11:59.563Z,29.78
2022-08-04T07:17:07.040Z,30.14
2022-08-04T07:22:15.774Z,30.4
2022-08-04T07:27:23.096Z,30.76
2022-08-04T07:32:29.684Z,30.58
2022-08-04T07:37:36.895Z,30.98
2022-08-04T07:42:43.443Z,31.21
2022-08-04T07:47:55.774Z,31.76
2022-08-04T07:53:03.607Z,32.1
2022-08-04T07:58:11.878Z,32.56
2022-08-04T08:03:18.642Z,32.34
2022-08-04T08:08:25.840Z,32.14
2022-08-04T08:13:37.588Z,31.78
2022-08-04T08:18:44.962Z,31.74
2022-08-04T08:23:52.538Z,31.93
2022-08-04T08:29:07.222Z,31.78
2022-08-04T08:34:13.334Z,31.38
2022-08-04T08:39:20.007Z,30.97
2022-08-04T08:44:29.195Z,31.11
2022-08-04T08:49:36.887Z,31.33
2022-08-04T08:54:45.205Z,30.96
2022-08-04T08:59:51.930Z,31.23
2022-08-04T09:04:59.772Z,31.01
2022-08-04T09:10:07.578Z,31.08
2022-08-04T09:15:15.145Z,31.26
2022-08-04T09:20:23.464Z,31.62
2022-08-04T09:25:31.607Z,31.8
2022-08-04T09:30:39.128Z,31.98
2022-08-04T09:35:46.618Z,31.97
2022-08-04T09:40:53.984Z,31.88
2022-08-04T09:46:02.071Z,31.9
2022-08-04T09:52:40.541Z,32.39
2022-08-04T09:57:47.716Z,32.33
2022-08-04T10:02:55.453Z,32.06
2022-08-04T10:08:02.737Z,32.48
2022-08-04T10:13:10.655Z,33.06
2022-08-04T10:18:19.607Z,33.0
2022-08-04T10:23:27.576Z,32.85
2022-08-04T10:28:35.109Z,33.12
2022-08-04T10:33:42.620Z,33.2
2022-08-04T10:38:50.792Z,33.36
2022-08-04T10:43:59.260Z,32.94
2022-08-04T10:49:06.982Z,33.01
2022-08-04T10:54:15.206Z,33.27
2022-08-04T10:59:23.340Z,33.43
2022-08-04T11:04:31.174Z,33.38
2022-08-04T11:09:38.405Z,33.42
2022-08-04T11:14:45.320Z,33.4
2022-08-04T11:19:52.759Z,33.43
2022-08-04T11:25:00.613Z,33.36
2022-08-04T11:30:08.809Z,33.54
2022-08-04T11:35:16.339Z,33.79
2022-08-04T11:40:24.541Z,33.58
2022-08-04T11:45:33.623Z,34.02
2022-08-04T11:50:42.177Z,33.89
2022-08-04T11:55:49.371Z,33.82
2022-08-04T12:00:56.808Z,33.76
2022-08-04T12:06:03.769Z,33.9
2022-08-04T12:11:11.218Z,33.4
2022-08-04T12:16:18.896Z,33.44
2022-08-04T12:21:27.230Z,33.43
2022-08-04T12:26:35.293Z,33.79
2022-08-04T12:31:49.126Z,33.3
2022-08-04T12:36:56.876Z,33.15
2022-08-04T12:42:04.404Z,33.43
2022-08-04T12:47:11.602Z,33.5
2022-08-04T12:52:20.568Z,33.58
2022-08-04T12:57:28.980Z,33.36
2022-08-04T13:02:36.383Z,33.53
2022-08-04T13:07:44.813Z,33.46
2022-08-04T13:12:52.153Z,33.68
2022-08-04T13:17:59.262Z,33.54
2022-08-04T13:23:06.713Z,33.62
2022-08-04T13:28:15.019Z,33.8
2022-08-04T13:33:22.789Z,33.52
2022-08-04T13:38:29.369Z,33.39
2022-08-04T13:43:37.689Z,33.34
2022-08-04T13:48:46.797Z,33.52
2022-08-04T13:53:54.310Z,33.53
2022-08-04T13:59:02.275Z,33.33
2022-08-04T14:04:10.412Z,33.53
2022-08-04T14:09:16.380Z,33.79
2022-08-04T14:14:23.608Z,34.52
2022-08-04T14:21:02.716Z,34.61
2022-08-04T14:26:09.356Z,34.42
2022-08-04T14:31:18.296Z,34.13
2022-08-04T14:36:26.994Z,34.12
2022-08-04T14:41:34.435Z,33.82
2022-08-04T14:46:41.617Z,33.61
2022-08-04T14:51:49.609Z,33.66
2022-08-04T14:56:57.279Z,33.47
2022-08-04T15:02:04.387Z,33.2
2022-08-04T15:07:11.539Z,32.9
2022-08-04T15:12:19.602Z,32.69
2022-08-04T15:17:28.092Z,32.36
2022-08-04T15:22:35.128Z,32.6
2022-08-04T15:27:42.966Z,33.12
2022-08-04T15:32:50.642Z,33.72
2022-08-04T15:37:58.387Z,34.11
2022-08-04T15:43:06.949Z,33.46
2022-08-04T15:48:14.418Z,33.19
2022-08-04T15:53:20.859Z,32.74
2022-08-04T15:58:28.392Z,32.17
2022-08-04T16:03:36.524Z,31.82
2022-08-04T16:08:44.237Z,31.6
2022-08-04T16:13:50.944Z,31.38
2022-08-04T16:18:58.991Z,31.21
2022-08-04T16:24:06.817Z,31.14
2022-08-04T16:29:13.454Z,31.02
2022-08-04T16:34:21.160Z,30.96
2022-08-04T16:39:33.374Z,30.92
2022-08-04T16:44:41.050Z,30.84
2022-08-04T16:49:47.769Z,30.72
2022-08-04T16:54:55.918Z,30.6
2022-08-04T17:00:03.421Z,30.53
2022-08-04T17:05:11.620Z,30.49
2022-08-04T17:10:19.644Z,30.42
2022-08-04T17:15:27.855Z,30.31
2022-08-04T17:20:34.781Z,30.2
2022-08-04T17:25:42.856Z,30.08
2022-08-04T17:30:49.815Z,30.02
2022-08-04T17:35:56.376Z,29.85
2022-08-04T17:41:04.602Z,29.7
2022-08-04T17:46:13.622Z,29.42
2022-08-04T17:51:21.110Z,29.12
2022-08-04T17:56:28.952Z,28.66
2022-08-04T18:01:36.567Z,28.18
2022-08-04T18:06:45.850Z,27.78
2022-08-04T18:11:54.280Z,27.4
2022-08-04T18:17:01.699Z,27.14
2022-08-04T18:22:16.677Z,26.71
2022-08-04T18:27:24.505Z,26.33
2022-08-04T18:32:32.949Z,25.97
2022-08-04T18:37:40.712Z,25.67
2022-08-04T18:42:48.996Z,25.42
2022-08-04T18:47:57.156Z,25.14
2022-08-04T18:53:04.980Z,24.94
2022-08-04T18:58:12.047Z,24.75
2022-08-04T19:03:18.949Z,24.65
2022-08-04T19:08:25.821Z,24.53
2022-08-04T19:13:32.371Z,24.49
2022-08-04T19:18:40.898Z,24.38
2022-08-04T19:23:48.058Z,24.31
2022-08-04T19:28:55.353Z,24.19
2022-08-04T19:34:02.557Z,24.11
2022-08-04T19:39:09.657Z,23.98
2022-08-04T19:44:17.043Z,23.92
2022-08-04T19:49:26.373Z,23.8
2022-08-04T19:54:33.857Z,23.57
2022-08-04T19:59:41.346Z,23.34
2022-08-04T20:04:49.771Z,23.08
2022-08-04T20:09:59.171Z,22.92
2022-08-04T20:15:07.640Z,22.72
2022-08-04T20:20:16.055Z,22.58
2022-08-04T20:25:25.210Z,22.47
2022-08-04T20:30:31.889Z,22.38
2022-08-04T20:35:41.150Z,22.19
2022-08-04T20:40:48.344Z,21.98
2022-08-04T20:45:56.704Z,21.79
2022-08-04T20:51:03.256Z,21.57
2022-08-04T20:56:11.325Z,21.44
2022-08-04T21:01:18.774Z,21.3
2022-08-04T21:06:27.927Z,21.17
2022-08-04T21:11:35.252Z,21.04
2022-08-04T21:16:42.674Z,20.93
2022-08-04T21:21:49.953Z,20.76
2022-08-04T21:26:58.041Z,20.6
2022-08-04T21:32:05.041Z,20.44
2022-08-04T21:37:12.570Z,20.29
2022-08-04T21:42:19.602Z,20.22
2022-08-04T21:47:26.330Z,20.06
2022-08-04T21:52:33.522Z,19.91
2022-08-04T21:57:40.726Z,19.82
2022-08-04T22:02:48.873Z,19.8
2022-08-04T22:07:55.769Z,19.7
2022-08-04T22:13:04.727Z,19.66
2022-08-04T22:18:12.015Z,19.56
2022-08-04T22:23:19.896Z,19.48
2022-08-04T22:28:27.742Z,19.38
2022-08-04T22:33:36.091Z,19.22
2022-08-04T22:38:43.936Z,19.12
2022-08-04T22:43:52.017Z,19.14
2022-08-04T22:49:00.147Z,19.09
2022-08-04T22:54:08.077Z,18.93
2022-08-04T22:59:15.911Z,18.88
2022-08-04T23:04:23.124Z,18.85
2022-08-04T23:09:31.062Z,18.79
2022-08-04T23:14:37.027Z,18.8
2022-08-04T23:19:43.571Z,18.8
2022-08-04T23:24:52.304Z,18.76
2022-08-04T23:29:59.252Z,18.62
2022-08-04T23:35:05.816Z,18.62
2022-08-04T23:40:13.125Z,18.58
2022-08-04T23:45:20.851Z,18.47
2022-08-04T23:50:29.094Z,18.44
2022-08-04T23:55:36.371Z,18.44
